Time,TemperatureF,DewpointF,PressureIn,WindDirection,WindDirectionDegrees,WindSpeedMPH,WindSpeedGustMPH,Humidity,HourlyPrecipIn,Conditions,Clouds,dailyrainin,SoftwareType,DateUTC
2013-09-12 00:12:00,64.0,40.0,-100.00,ESE,117,4.0,7.0,41,0.00,,,-99.99,,2013-09-12 07:12:00,
2013-09-12 00:21:00,62.0,40.0,-100.00,ESE,103,5.0,7.0,45,0.00,,,-99.99,,2013-09-12 07:21:00,
2013-09-12 00:43:00,59.0,42.0,-100.00,South,182,2.0,5.0,53,0.00,,,-99.99,,2013-09-12 07:43:00,
2013-09-12 01:11:00,60.0,41.0,-100.00,SE,145,2.0,7.0,49,0.00,,,-99.99,,2013-09-12 08:11:00,
2013-09-12 01:42:00,62.0,38.0,-100.00,ENE,78,5.0,7.0,41,0.00,,,-99.99,,2013-09-12 08:42:00,
2013-09-12 02:40:00,58.0,41.0,-100.00,NNE,23,1.0,3.0,54,0.00,,,-99.99,,2013-09-12 09:40:00,
2013-09-12 03:12:00,59.0,41.0,-100.00,North,0,2.0,4.0,52,0.00,,,-99.99,,2013-09-12 10:12:00,
2013-09-12 04:22:00,55.0,39.0,-100.00,ENE,71,4.0,6.0,55,0.00,,,-99.99,,2013-09-12 11:22:00,
2013-09-12 07:42:00,52.0,40.0,-100.00,SSE,152,1.0,3.0,64,0.00,,,-99.99,,2013-09-12 14:42:00,
2013-09-12 08:22:00,49.0,41.0,-100.00,ESE,106,3.0,5.0,73,0.00,,,-99.99,,2013-09-12 15:22:00,
2013-09-12 08:43:00,52.0,43.0,-100.00,NNW,344,0.0,3.0,70,0.00,,,-99.99,,2013-09-12 15:43:00,
2013-09-12 09:23:00,58.0,42.0,-100.00,WNW,289,1.0,3.0,56,0.00,,,-99.99,,2013-09-12 16:23:00,
2013-09-12 09:43:00,61.0,41.0,-100.00,WSW,254,2.0,5.0,47,0.00,,,-99.99,,2013-09-12 16:43:00,
2013-09-12 09:53:00,62.0,40.0,-100.00,WSW,244,2.0,4.0,45,0.00,,,-99.99,,2013-09-12 16:53:00,
2013-09-12 10:03:00,62.0,40.0,-100.00,WSW,244,2.0,4.0,45,0.00,,,-99.99,,2013-09-12 17:03:00,
2013-09-12 10:23:00,69.0,37.0,-100.00,ESE,116,3.0,6.0,31,0.00,,,-99.99,,2013-09-12 17:23:00,
2013-09-12 10:42:00,73.0,38.0,-100.00,NE,56,2.0,6.0,28,0.00,,,-99.99,,2013-09-12 17:42:00,
2013-09-12 11:12:00,76.0,38.0,-100.00,SE,138,1.0,5.0,25,0.00,,,-99.99,,2013-09-12 18:12:00,
2013-09-12 11:21:00,76.0,38.0,-100.00,SE,138,1.0,5.0,25,0.00,,,-99.99,,2013-09-12 18:21:00,
2013-09-12 11:42:00,76.0,38.0,-100.00,North,349,1.0,6.0,25,0.00,,,-99.99,,2013-09-12 18:42:00,
2013-09-12 11:52:00,78.0,38.0,-100.00,SW,229,1.0,6.0,24,0.00,,,-99.99,,2013-09-12 18:52:00,
2013-09-12 12:12:00,79.0,41.0,-100.00,NNW,335,3.0,8.0,26,0.00,,,-99.99,,2013-09-12 19:12:00,
2013-09-12 12:22:00,79.0,43.0,-100.00,NW,304,4.0,9.0,28,0.00,,,-99.99,,2013-09-12 19:22:00,
2013-09-12 12:42:00,78.0,42.0,-100.00,NNW,333,7.0,13.0,28,0.00,,,-99.99,,2013-09-12 19:42:00,
2013-09-12 13:22:00,81.0,43.0,-100.00,North,356,7.0,13.0,26,0.00,,,-99.99,,2013-09-12 20:22:00,
2013-09-12 13:42:00,80.0,42.0,-100.00,North,356,5.0,10.0,26,0.00,,,-99.99,,2013-09-12 20:42:00,
2013-09-12 14:11:00,80.0,42.0,-100.00,NNW,337,6.0,12.0,26,0.00,,,-99.99,,2013-09-12 21:11:00,
2013-09-12 14:21:00,83.0,42.0,-100.00,NNW,343,11.0,16.0,24,0.00,,,-99.99,,2013-09-12 21:21:00,
2013-09-12 14:43:00,80.0,43.0,-100.00,WNW,292,9.0,17.0,27,0.00,,,-99.99,,2013-09-12 21:43:00,
2013-09-12 15:43:00,81.0,45.0,-100.00,NE,38,3.0,7.0,28,0.00,,,-99.99,,2013-09-12 22:43:00,
2013-09-12 15:54:00,81.0,45.0,-100.00,NE,38,3.0,7.0,28,0.00,,,-99.99,,2013-09-12 22:54:00,
2013-09-12 16:12:00,83.0,44.0,-100.00,ESE,109,3.0,14.0,25,0.00,,,-99.99,,2013-09-12 23:12:00,
2013-09-12 16:23:00,83.0,44.0,-100.00,ESE,109,3.0,14.0,25,0.00,,,-99.99,,2013-09-12 23:23:00,
2013-09-12 16:42:00,84.0,42.0,-100.00,WNW,289,8.0,16.0,23,0.00,,,-99.99,,2013-09-12 23:42:00,
2013-09-12 17:11:00,82.0,42.0,-100.00,NW,316,10.0,16.0,24,0.00,,,-99.99,,2013-09-13 00:11:00,
2013-09-12 17:22:00,82.0,42.0,-100.00,NW,316,10.0,16.0,24,0.00,,,-99.99,,2013-09-13 00:22:00,
2013-09-12 17:42:00,81.0,46.0,-100.00,NW,319,10.0,17.0,29,0.00,,,-99.99,,2013-09-13 00:42:00,
2013-09-12 18:11:00,80.0,43.0,-100.00,NNW,333,9.0,14.0,27,0.00,,,-99.99,,2013-09-13 01:11:00,
2013-09-12 18:22:00,79.0,46.0,-100.00,NNW,330,12.0,18.0,31,0.00,,,-99.99,,2013-09-13 01:22:00,
2013-09-12 18:42:00,78.0,46.0,-100.00,NNW,336,11.0,16.0,32,0.00,,,-99.99,,2013-09-13 01:42:00,
2013-09-12 19:11:00,77.0,46.0,-100.00,NNW,329,9.0,14.0,34,0.00,,,-99.99,,2013-09-13 02:11:00,
2013-09-12 19:43:00,74.0,48.0,-100.00,NNW,328,24.0,34.0,40,0.00,,,-99.99,,2013-09-13 02:43:00,
2013-09-12 19:53:00,74.0,48.0,-100.00,NNW,328,24.0,34.0,40,0.00,,,-99.99,,2013-09-13 02:53:00,
2013-09-12 20:22:00,68.0,50.0,-100.00,WNW,287,10.0,14.0,53,0.00,,,-99.99,,2013-09-13 03:22:00,
2013-09-12 20:44:00,68.0,50.0,-100.00,WNW,288,7.0,10.0,53,0.00,,,-99.99,,2013-09-13 03:44:00,
2013-09-12 21:14:00,68.0,50.0,-100.00,SSW,213,8.0,15.0,53,0.00,,,-99.99,,2013-09-13 04:14:00,
2013-09-12 21:24:00,68.0,50.0,-100.00,SSW,213,8.0,15.0,53,0.00,,,-99.99,,2013-09-13 04:24:00,
2013-09-12 21:44:00,68.0,51.0,-100.00,SSE,160,2.0,5.0,54,0.00,,,-99.99,,2013-09-13 04:44:00,
2013-09-12 22:13:00,65.0,53.0,-100.00,SW,234,5.0,14.0,65,0.00,,,-99.99,,2013-09-13 05:13:00,
2013-09-12 22:43:00,64.0,53.0,-100.00,SSE,161,8.0,11.0,67,0.00,,,-99.99,,2013-09-13 05:43:00,
2013-09-12 22:53:00,63.0,53.0,-100.00,South,175,5.0,7.0,70,0.00,,,-99.99,,2013-09-13 05:53:00,
2013-09-12 23:02:00,63.0,53.0,-100.00,South,175,5.0,7.0,70,0.00,,,-99.99,,2013-09-13 06:02:00,
2013-09-12 23:22:00,62.0,51.0,-100.00,South,174,1.0,4.0,68,0.00,,,-99.99,,2013-09-13 06:22:00,
2013-09-12 23:42:00,62.0,52.0,-100.00,ESE,120,1.0,3.0,69,0.00,,,-99.99,,2013-09-13 06:42:00,
2013-09-12 23:52:00,62.0,52.0,-100.00,ESE,120,1.0,3.0,69,0.00,,,-99.99,,2013-09-13 06:52:00,